Time;durP1;ratioP1;P1;durP2;ratioP2;P2;SDS_P1;SDS_P2;PMS_P1;PMS_P2;Temp;Humidity;BMP_temperature;BMP_pressure;BME280_temperature;BME280_humidity;BME280_pressure;Samples;Min_cycle;Max_cycle;Signal;HPM_P1;HPM_P2
2022/06/23 00:01:08;;;;;;;6.42;5.12;;;;;;;13.47;100.00;98421.22;1675629;85;21445;-73
2022/06/23 00:03:35;;;;;;;10.00;6.37;;;;;;;13.49;100.00;98410.38;1675290;85;20963;-70
2022/06/23 00:06:07;;;;;;;8.25;6.25;;;;;;;13.51;100.00;98418.18;1675580;85;20915;-73
2022/06/23 00:08:45;;;;;;;7.05;6.35;;;;;;;13.57;100.00;98420.22;1675322;84;20962;-70
2022/06/23 00:11:23;;;;;;;10.48;6.30;;;;;;;13.61;100.00;98426.05;1675717;85;21125;-69
2022/06/23 00:13:51;;;;;;;9.10;6.90;;;;;;;13.64;100.00;98421.95;1675417;85;20924;-69
2022/06/23 00:16:25;;;;;;;6.75;6.05;;;;;;;13.64;100.00;98417.36;1675578;85;20864;-70
2022/06/23 00:18:52;;;;;;;7.78;5.50;;;;;;;13.64;100.00;98416.56;1674100;85;21469;-71
2022/06/23 00:21:29;;;;;;;5.95;5.33;;;;;;;13.66;100.00;98419.20;1675602;85;21445;-71
2022/06/23 00:24:03;;;;;;;7.97;5.55;;;;;;;13.67;100.00;98410.56;1675728;85;21158;-70
2022/06/23 00:26:34;;;;;;;6.30;4.87;;;;;;;13.70;100.00;98409.98;1675416;85;20864;-72
2022/06/23 00:29:08;;;;;;;7.40;5.30;;;;;;;13.72;100.00;98403.73;1675701;85;20947;-72
2022/06/23 00:31:42;;;;;;;7.90;5.50;;;;;;;13.74;100.00;98416.34;1673821;85;20923;-70
2022/06/23 00:34:22;;;;;;;7.17;4.80;;;;;;;13.75;100.00;98411.77;1675497;85;21493;-70
2022/06/23 00:36:53;;;;;;;5.30;4.80;;;;;;;13.78;100.00;98407.12;1675478;85;21155;-70
2022/06/23 00:39:38;;;;;;;8.00;4.97;;;;;;;13.78;100.00;98420.05;1675485;85;20932;-69
2022/06/23 00:42:28;;;;;;;5.22;4.72;;;;;;;13.79;100.00;98423.01;1675604;85;20979;-72
2022/06/23 00:45:16;;;;;;;12.07;4.50;;;;;;;13.83;100.00;98436.12;1675286;85;20987;-68
2022/06/23 00:47:55;;;;;;;9.15;6.15;;;;;;;13.86;100.00;98440.11;1678075;85;20994;-68
2022/06/23 00:50:49;;;;;;;9.55;6.80;;;;;;;13.90;100.00;98433.81;1678325;85;22151;-70
2022/06/23 00:53:27;;;;;;;7.70;6.47;;;;;;;13.91;100.00;98438.65;1678184;85;20939;-71
2022/06/23 00:56:18;;;;;;;12.85;9.48;;;;;;;13.88;100.00;98447.36;1677998;85;20899;-67
2022/06/23 00:58:53;;;;;;;13.58;6.40;;;;;;;13.90;100.00;98440.55;1670675;85;20959;-70
2022/06/23 01:01:37;;;;;;;12.88;6.90;;;;;;;13.92;100.00;98439.70;1670356;86;20936;-69
2022/06/23 01:04:21;;;;;;;12.37;7.37;;;;;;;13.94;100.00;98457.73;1669212;86;21871;-69
2022/06/23 01:07:03;;;;;;;7.58;6.60;;;;;;;14.00;100.00;98461.67;1669568;85;21015;-68
2022/06/23 01:09:41;;;;;;;10.95;7.03;;;;;;;13.96;100.00;98453.37;1670528;86;20911;-69
2022/06/23 01:12:29;;;;;;;12.55;8.00;;;;;;;14.00;100.00;98465.72;1670055;85;20960;-68
2022/06/23 01:15:18;;;;;;;12.50;7.90;;;;;;;14.01;100.00;98458.66;1670704;86;20999;-67
2022/06/23 01:18:06;;;;;;;8.08;6.60;;;;;;;14.02;100.00;98462.97;1670558;86;21165;-73
2022/06/23 01:21:28;;;;;;;12.78;7.05;;;;;;;14.03;100.00;98473.20;1670356;86;20979;-70
2022/06/23 01:24:21;;;;;;;13.75;5.87;;;;;;;14.00;100.00;98472.47;1670533;86;21027;-72
2022/06/23 01:26:53;;;;;;;10.70;6.80;;;;;;;14.02;100.00;98475.11;1670309;86;21517;-69
2022/06/23 01:29:48;;;;;;;8.80;7.50;;;;;;;14.01;100.00;98479.45;1670610;86;21501;-71
2022/06/23 01:32:35;;;;;;;11.73;8.40;;;;;;;14.03;100.00;98478.59;1670317;85;21163;-70
2022/06/23 01:35:16;;;;;;;11.33;7.45;;;;;;;14.03;100.00;98471.86;1669980;84;21438;-67
2022/06/23 01:37:51;;;;;;;9.80;7.22;;;;;;;14.01;100.00;98468.09;1670471;86;21375;-68
2022/06/23 01:40:36;;;;;;;8.60;7.33;;;;;;;14.02;100.00;98464.88;1607810;88;21004;-68
2022/06/23 01:43:22;;;;;;;10.18;7.50;;;;;;;14.03;100.00;98465.11;1607724;89;20949;-68
2022/06/23 01:45:57;;;;;;;13.28;7.70;;;;;;;14.03;100.00;98462.41;1607841;89;21309;-71
2022/06/23 01:48:54;;;;;;;13.88;6.67;;;;;;;14.01;100.00;98465.95;1607728;89;21079;-69
2022/06/23 01:51:44;;;;;;;11.60;5.83;;;;;;;14.01;100.00;98463.26;1607880;89;20932;-71
2022/06/23 01:54:16;;;;;;;10.82;6.15;;;;;;;14.04;100.00;98466.73;1608035;87;21467;-69
2022/06/23 01:56:54;;;;;;;8.13;6.85;;;;;;;14.01;100.00;98459.21;1607948;89;20960;-69
2022/06/23 02:00:03;;;;;;;8.10;6.85;;;;;;;14.03;100.00;98475.34;1605704;88;25095;-69
2022/06/23 02:02:46;;;;;;;7.95;6.15;;;;;;;14.02;100.00;98463.52;1607470;89;20964;-68
2022/06/23 02:05:39;;;;;;;7.00;5.90;;;;;;;14.04;100.00;98470.77;1607609;89;21684;-70
2022/06/23 02:08:51;;;;;;;8.58;6.47;;;;;;;14.04;100.00;98465.38;1607672;89;20999;-68
2022/06/23 02:11:35;;;;;;;10.18;5.97;;;;;;;14.03;100.00;98464.55;1607694;89;20983;-72
2022/06/23 02:14:27;;;;;;;9.53;6.10;;;;;;;14.05;100.00;98459.66;1603862;89;21294;-72
2022/06/23 02:17:01;;;;;;;7.22;6.03;;;;;;;14.08;100.00;98470.39;1540068;90;21036;-70
2022/06/23 02:19:45;;;;;;;8.13;6.17;;;;;;;14.08;100.00;98463.09;1580733;90;20905;-69
2022/06/23 02:22:32;;;;;;;7.90;6.17;;;;;;;14.11;100.00;98467.08;1581066;90;20978;-70
2022/06/23 02:25:13;;;;;;;8.35;4.92;;;;;;;14.11;100.00;98443.63;1585225;90;21037;-70
2022/06/23 02:28:14;;;;;;;8.63;4.87;;;;;;;14.10;100.00;98468.98;1585202;90;22231;-71
2022/06/23 02:30:54;;;;;;;7.22;6.53;;;;;;;14.15;100.00;98471.57;1585098;90;21028;-69
2022/06/23 02:33:39;;;;;;;13.58;6.62;;;;;;;14.18;100.00;98474.21;1585239;90;20961;-70
2022/06/23 02:36:41;;;;;;;11.08;6.15;;;;;;;14.18;100.00;98468.81;1585153;90;21028;-68
2022/06/23 02:39:19;;;;;;;7.72;5.10;;;;;;;14.20;100.00;98465.83;1581142;90;20990;-70
2022/06/23 02:41:54;;;;;;;6.85;5.05;;;;;;;14.24;100.00;98463.57;1584075;89;21301;-70
2022/06/23 02:44:33;;;;;;;8.35;5.17;;;;;;;14.30;100.00;98479.09;1585072;90;21004;-68
2022/06/23 02:47:40;;;;;;;7.17;5.58;;;;;;;14.30;100.00;98483.93;1580973;90;21505;-69
2022/06/23 02:50:40;;;;;;;6.65;5.12;;;;;;;14.34;100.00;98487.62;1584977;88;21530;-70
2022/06/23 02:53:16;;;;;;;7.40;4.75;;;;;;;14.40;100.00;98484.81;1585232;90;21080;-70
2022/06/23 02:55:57;;;;;;;9.60;6.12;;;;;;;14.47;100.00;98481.14;1673258;85;21474;-67
2022/06/23 02:58:34;;;;;;;6.80;6.10;;;;;;;14.50;100.00;98489.45;1667319;84;21047;-71
2022/06/23 03:01:10;;;;;;;7.60;6.30;;;;;;;14.56;100.00;98490.94;1663427;86;20936;-70
2022/06/23 03:04:04;;;;;;;8.73;6.08;;;;;;;14.66;100.00;98496.66;1663085;86;21008;-68
2022/06/23 03:06:48;;;;;;;7.35;5.90;;;;;;;14.69;100.00;98502.78;1663105;86;20900;-73
2022/06/23 03:09:40;;;;;;;8.28;6.58;;;;;;;14.83;100.00;98500.03;1663142;86;21829;-70
2022/06/23 03:12:20;;;;;;;8.38;5.60;;;;;;;14.93;100.00;98497.08;1662968;86;21003;-71
2022/06/23 03:15:04;;;;;;;7.45;5.78;;;;;;;15.01;100.00;98504.99;1663132;86;21526;-68
2022/06/23 03:17:50;;;;;;;7.15;6.42;;;;;;;15.08;100.00;98505.92;1662967;86;21457;-73
2022/06/23 03:20:44;;;;;;;8.70;6.10;;;;;;;15.08;100.00;98499.95;1638687;86;21003;-72
2022/06/23 03:23:44;;;;;;;6.50;5.90;;;;;;;15.25;100.00;98505.22;1662987;86;21264;-70
2022/06/23 03:26:35;;;;;;;6.55;5.17;;;;;;;15.43;100.00;98499.59;1662985;86;21015;-71
2022/06/23 03:29:29;;;;;;;10.80;5.30;;;;;;;15.67;100.00;98502.46;1658860;86;20900;-69
2022/06/23 03:32:22;;;;;;;9.85;5.67;;;;;;;15.67;100.00;98504.38;1663055;86;20955;-69
2022/06/23 03:34:57;;;;;;;10.40;5.00;;;;;;;15.55;100.00;98495.49;1664640;85;20944;-69
2022/06/23 03:38:06;;;;;;;7.92;5.30;;;;;;;15.37;100.00;98503.53;1663200;86;21271;-71
2022/06/23 03:43:41;;;;;;;6.90;5.00;;;;;;;15.26;100.00;98510.30;1663122;86;20944;-67
2022/06/23 03:46:38;;;;;;;7.78;6.10;;;;;;;15.27;100.00;98511.12;1663243;86;20952;-73
2022/06/23 03:49:47;;;;;;;10.93;6.20;;;;;;;15.17;100.00;98501.37;1663175;86;21000;-71
2022/06/23 03:52:37;;;;;;;8.03;4.45;;;;;;;15.36;100.00;98517.34;1643460;87;22471;-69
2022/06/23 03:55:31;;;;;;;8.33;4.55;;;;;;;15.60;100.00;98521.84;1641491;87;21079;-69
2022/06/23 03:58:02;;;;;;;5.53;4.28;;;;;;;15.78;100.00;98521.96;1603392;87;20924;-64
2022/06/23 04:00:38;;;;;;;9.35;4.40;;;;;;;16.12;100.00;98523.15;1643582;87;21037;-69
2022/06/23 04:03:26;;;;;;;8.60;4.45;;;;;;;16.48;100.00;98517.47;1643564;87;20980;-71
2022/06/23 04:06:01;;;;;;;4.35;3.77;;;;;;;16.60;100.00;98516.84;1643727;87;21191;-69
2022/06/23 04:08:31;;;;;;;5.97;3.85;;;;;;;16.61;100.00;98518.42;1642271;87;20984;-73
2022/06/23 04:11:43;;;;;;;4.90;3.90;;;;;;;16.50;100.00;98522.02;1643432;87;21455;-71
2022/06/23 04:13:36;;;;;;;5.08;3.80;;;;;;;16.42;100.00;98532.30;1640498;87;20976;-70
2022/06/23 04:16:09;;;;;;;4.55;3.75;;;;;;;16.68;100.00;98530.41;1643767;87;21511;-73
2022/06/23 04:18:42;;;;;;;5.42;3.60;;;;;;;16.82;100.00;98530.25;1643407;87;21536;-73
2022/06/23 04:21:14;;;;;;;5.37;4.05;;;;;;;16.75;100.00;98521.78;1643603;87;20949;-73
2022/06/23 04:23:49;;;;;;;5.87;4.40;;;;;;;16.74;100.00;98523.47;1643502;87;20885;-75
2022/06/23 04:26:40;;;;;;;6.17;4.15;;;;;;;16.61;100.00;98523.84;1643708;87;21037;-72
2022/06/23 04:29:11;;;;;;;6.85;5.00;;;;;;;16.58;100.00;98531.26;1661865;85;20959;-74
2022/06/23 04:31:45;;;;;;;6.58;4.85;;;;;;;16.62;100.00;98527.60;1678327;85;21151;-72
2022/06/23 04:34:26;;;;;;;5.03;4.00;;;;;;;16.56;100.00;98523.47;1677801;85;20908;-74
2022/06/23 04:36:53;;;;;;;13.98;4.75;;;;;;;16.61;100.00;98523.31;1677956;85;21513;-74
2022/06/23 04:39:37;;;;;;;9.83;4.20;;;;;;;16.69;100.00;98531.98;1678336;85;21478;-75
2022/06/23 04:42:21;;;;;;;8.05;4.42;;;;;;;16.67;100.00;98528.00;1678405;85;21006;-71
2022/06/23 04:44:53;;;;;;;8.25;5.20;;;;;;;16.72;100.00;98532.70;1677947;85;21125;-72
2022/06/23 04:47:28;;;;;;;7.53;4.20;;;;;;;16.89;100.00;98543.33;1678500;85;21470;-74
2022/06/23 04:50:04;;;;;;;5.10;4.40;;;;;;;17.00;100.00;98547.86;1678052;85;20998;-75
2022/06/23 04:52:39;;;;;;;4.97;4.03;;;;;;;17.09;100.00;98560.28;1678315;85;20962;-77
2022/06/23 04:55:24;;;;;;;9.43;4.00;;;;;;;17.30;100.00;98559.06;1677620;85;20927;-73
2022/06/23 04:58:13;;;;;;;8.25;4.28;;;;;;;17.57;100.00;98569.30;1676943;84;21266;-74
2022/06/23 05:00:48;;;;;;;6.22;4.15;;;;;;;17.89;100.00;98564.42;1672947;85;20907;-72
2022/06/23 05:03:26;;;;;;;4.33;3.33;;;;;;;17.85;100.00;98565.63;1672953;85;20955;-72
2022/06/23 05:06:06;;;;;;;5.45;3.90;;;;;;;17.67;100.00;98559.45;1673109;85;20912;-70
2022/06/23 05:08:33;;;;;;;8.18;4.22;;;;;;;17.52;100.00;98566.20;1670567;85;20945;-69
2022/06/23 05:11:18;;;;;;;12.53;6.87;;;;;;;17.57;100.00;98574.72;1673192;85;21557;-73
2022/06/23 05:13:53;;;;;;;11.65;10.00;;;;;;;17.52;100.00;98576.26;1673002;85;20967;-71
2022/06/23 05:16:32;;;;;;;12.18;8.98;;;;;;;17.57;100.00;98577.44;1673412;85;20947;-72
2022/06/23 05:19:02;;;;;;;14.70;8.10;;;;;;;17.61;100.00;98577.57;1673121;85;20963;-73
2022/06/23 05:21:33;;;;;;;7.12;6.12;;;;;;;17.71;100.00;98580.75;1673343;85;21453;-74
2022/06/23 05:24:10;;;;;;;8.13;5.58;;;;;;;17.73;100.00;98588.55;1671710;85;20908;-73
2022/06/23 05:26:54;;;;;;;6.92;5.20;;;;;;;17.74;100.00;98587.45;1672801;85;21489;-73
2022/06/23 05:29:37;;;;;;;7.05;4.20;;;;;;;17.90;100.00;98589.88;1647243;85;20968;-75
2022/06/23 05:32:13;;;;;;;9.35;4.17;;;;;;;17.94;100.00;98592.17;1673033;85;21030;-71
2022/06/23 05:34:58;;;;;;;6.40;3.30;;;;;;;18.15;100.00;98605.84;1672648;85;20951;-75
2022/06/23 05:37:40;;;;;;;4.10;3.65;;;;;;;18.15;100.00;98601.77;1672144;85;21142;-71
2022/06/23 05:40:19;;;;;;;4.17;3.45;;;;;;;18.17;100.00;98600.84;1673008;85;20999;-73
2022/06/23 05:42:49;;;;;;;3.92;2.95;;;;;;;18.06;100.00;98608.36;1664005;86;21578;-71
2022/06/23 05:45:23;;;;;;;8.88;4.25;;;;;;;18.10;100.00;98612.78;1663735;86;21059;-72
2022/06/23 05:47:51;;;;;;;6.30;4.75;;;;;;;18.25;100.00;98604.67;1663768;86;20975;-74
2022/06/23 05:50:29;;;;;;;6.78;4.10;;;;;;;18.45;100.00;98597.69;1641501;86;21647;-74
2022/06/23 05:53:09;;;;;;;18.00;4.30;;;;;;;18.48;100.00;98601.66;1663908;86;21012;-72
2022/06/23 05:55:53;;;;;;;6.53;4.40;;;;;;;18.55;100.00;98613.59;1663897;86;20965;-73
2022/06/23 05:58:31;;;;;;;6.10;4.03;;;;;;;18.98;100.00;98615.23;1662219;86;20934;-73
2022/06/23 06:01:12;;;;;;;7.35;3.80;;;;;;;19.40;100.00;98617.11;1655753;86;20972;-73
2022/06/23 06:03:47;;;;;;;4.67;3.62;;;;;;;20.21;100.00;98619.70;1655987;86;21254;-74
2022/06/23 06:06:14;;;;;;;6.65;4.10;;;;;;;19.97;100.00;98615.02;1655696;86;21029;-73
2022/06/23 06:11:44;;;;;;;4.12;3.72;;;;;;;19.67;100.00;98615.20;1655646;86;21065;-75
2022/06/23 06:14:13;;;;;;;9.85;3.60;;;;;;;19.77;100.00;98615.88;1655618;86;20976;-74
2022/06/23 06:16:39;;;;;;;9.40;4.20;;;;;;;19.93;100.00;98624.20;1655773;86;21512;-72
2022/06/23 06:19:08;;;;;;;8.20;3.40;;;;;;;20.07;100.00;98628.77;1635861;85;21535;-70
2022/06/23 06:21:35;;;;;;;3.47;3.00;;;;;;;20.22;100.00;98631.38;1674083;85;21019;-72
2022/06/23 06:24:08;;;;;;;6.75;3.02;;;;;;;20.33;100.00;98634.69;1674488;85;20980;-72
2022/06/23 06:26:40;;;;;;;3.02;2.77;;;;;;;20.45;100.00;98637.16;1674049;84;21509;-75
2022/06/23 06:29:20;;;;;;;6.30;3.87;;;;;;;20.58;100.00;98633.34;1677783;85;21676;-77
2022/06/23 06:32:20;;;;;;;3.35;3.05;;;;;;;20.64;100.00;98636.04;1678496;84;21576;-77
2022/06/23 06:34:51;;;;;;;6.50;3.12;;;;;;;21.37;98.31;98646.55;1678152;85;20982;-74
2022/06/23 06:37:18;;;;;;;6.12;3.95;;;;;;;21.93;94.29;98651.97;1678181;84;20951;-75
2022/06/23 06:39:50;;;;;;;5.57;2.97;;;;;;;22.23;90.55;98646.11;1678857;85;20954;-75
2022/06/23 06:42:24;;;;;;;7.12;3.77;;;;;;;22.05;89.99;98646.43;1678543;85;21152;-74
2022/06/23 06:44:56;;;;;;;5.67;3.50;;;;;;;21.70;91.50;98645.50;1677773;85;20903;-73
2022/06/23 06:47:30;;;;;;;7.70;4.37;;;;;;;21.45;94.92;98646.20;1678517;85;21421;-73
2022/06/23 06:50:20;;;;;;;6.12;3.62;;;;;;;21.32;94.04;98651.67;1678616;85;20994;-74
2022/06/23 06:52:47;;;;;;;6.00;3.00;;;;;;;21.56;92.99;98645.35;1678209;84;20970;-73
2022/06/23 06:55:34;;;;;;;4.62;3.25;;;;;;;21.69;92.33;98654.84;1678727;85;21154;-73
2022/06/23 06:58:33;;;;;;;6.13;3.07;;;;;;;21.66;89.54;98657.70;1678484;85;20872;-73
2022/06/23 07:01:22;;;;;;;5.28;2.98;;;;;;;21.50;89.22;98654.92;1678620;85;20939;-74
2022/06/23 07:03:51;;;;;;;8.25;3.67;;;;;;;21.27;92.23;98664.78;1678349;85;20959;-77
2022/06/23 07:06:39;;;;;;;5.80;2.90;;;;;;;21.32;91.68;98659.08;1678629;85;20999;-78
2022/06/23 07:09:14;;;;;;;9.28;3.58;;;;;;;21.69;88.31;98661.09;1679552;84;21858;-73
2022/06/23 07:12:05;;;;;;;4.80;3.12;;;;;;;21.96;85.32;98666.29;1679727;85;21414;-72
2022/06/23 07:15:05;;;;;;;3.90;3.08;;;;;;;22.12;83.63;98660.03;1678189;84;21485;-73
2022/06/23 07:17:40;;;;;;;5.47;3.40;;;;;;;22.33;83.12;98663.33;1678553;85;20978;-76
2022/06/23 07:20:19;;;;;;;4.25;3.05;;;;;;;22.25;77.55;98667.83;1651730;85;21006;-72
2022/06/23 07:22:51;;;;;;;2.72;2.33;;;;;;;22.40;76.40;98666.81;1678656;85;21973;-70
2022/06/23 07:25:26;;;;;;;5.95;2.58;;;;;;;22.57;73.66;98671.12;1674507;85;20927;-73
2022/06/23 07:28:10;;;;;;;4.67;2.65;;;;;;;22.60;77.06;98674.52;1678541;85;20907;-76
2022/06/23 07:30:44;;;;;;;4.15;2.42;;;;;;;22.55;71.96;98679.67;1678570;85;20979;-70
2022/06/23 07:33:17;;;;;;;2.92;2.60;;;;;;;22.41;68.54;98679.33;1678557;85;21461;-73
2022/06/23 07:36:01;;;;;;;4.15;2.95;;;;;;;22.33;72.12;98677.00;1678228;85;21552;-72
2022/06/23 07:38:42;;;;;;;8.28;3.00;;;;;;;22.57;72.51;98687.53;1678521;85;21502;-72
2022/06/23 07:41:49;;;;;;;8.03;2.52;;;;;;;22.74;69.37;98678.95;1678570;84;20864;-71
2022/06/23 07:44:22;;;;;;;3.12;2.67;;;;;;;22.52;68.77;98684.49;1678470;84;21017;-74
2022/06/23 07:46:49;;;;;;;7.25;3.08;;;;;;;22.83;71.67;98680.92;1678365;85;20911;-72
2022/06/23 07:49:17;;;;;;;7.40;2.90;;;;;;;23.13;65.65;98689.19;1678692;85;21341;-73
2022/06/23 07:51:44;;;;;;;4.70;2.65;;;;;;;23.50;67.92;98690.95;1678352;85;20995;-74
2022/06/23 07:54:15;;;;;;;7.77;2.50;;;;;;;23.56;61.76;98686.75;1678873;85;20939;-68
2022/06/23 07:56:42;;;;;;;4.67;1.90;;;;;;;23.31;62.05;98680.20;1678441;85;21505;-69
2022/06/23 07:59:15;;;;;;;3.55;2.30;;;;;;;23.01;61.87;98693.66;1671922;85;21023;-68
2022/06/23 08:01:53;;;;;;;5.45;2.17;;;;;;;22.98;61.54;98696.30;1677806;85;21215;-70
2022/06/23 08:04:33;;;;;;;5.58;2.37;;;;;;;22.71;63.06;98700.18;1621687;88;20945;-69
2022/06/23 08:07:03;;;;;;;3.10;2.10;;;;;;;22.97;61.75;98691.95;1621422;88;20982;-70
2022/06/23 08:09:48;;;;;;;4.92;2.65;;;;;;;22.66;61.75;98675.81;1621681;88;20933;-68
2022/06/23 08:18:28;;;;;;;5.70;2.72;;;;;;;23.44;57.89;98699.23;1621785;88;21585;-69
2022/06/23 08:21:12;;;;;;;4.25;3.47;;;;;;;23.48;59.07;98711.84;1621851;88;21001;-66
2022/06/23 08:23:52;;;;;;;5.03;3.52;;;;;;;23.30;58.00;98710.11;1621813;88;21537;-69
2022/06/23 08:26:21;;;;;;;9.25;2.92;;;;;;;23.22;59.92;98722.05;1621832;88;21076;-67
2022/06/23 08:28:51;;;;;;;2.83;2.33;;;;;;;23.49;57.01;98718.11;1621875;88;21157;-70
2022/06/23 08:31:18;;;;;;;10.28;3.45;;;;;;;23.71;56.09;98720.70;1621479;88;21001;-68
2022/06/23 08:33:45;;;;;;;8.93;2.10;;;;;;;23.80;54.78;98726.00;1621966;88;21597;-70
2022/06/23 08:36:17;;;;;;;7.83;2.42;;;;;;;24.08;52.96;98745.73;1621777;88;21081;-71
2022/06/23 08:38:59;;;;;;;3.92;2.15;;;;;;;23.74;52.58;98729.03;1621587;88;21088;-68
2022/06/23 08:41:41;;;;;;;8.75;5.08;;;;;;;23.19;54.51;98736.45;1645143;85;21544;-69
2022/06/23 08:44:30;;;;;;;7.72;2.70;;;;;;;23.05;57.00;98744.34;1677778;85;21014;-69
2022/06/23 08:47:11;;;;;;;4.50;2.40;;;;;;;23.17;56.42;98740.70;1677761;85;20939;-69
2022/06/23 08:49:54;;;;;;;5.78;2.62;;;;;;;23.71;55.32;98748.91;1677700;85;21445;-69
2022/06/23 08:53:05;;;;;;;5.67;2.25;;;;;;;23.74;53.60;98729.03;1677655;85;20907;-68
2022/06/23 08:55:53;;;;;;;7.12;1.95;;;;;;;23.81;54.19;98754.38;1677859;85;21386;-70
2022/06/23 08:58:41;;;;;;;;;;;;;;;23.89;51.31;98746.54;1680154;85;20943;-73
2022/06/23 09:01:35;;;;;;;5.45;2.02;;;;;;;23.95;52.38;98755.25;1648585;85;20085;-70
2022/06/23 09:04:40;;;;;;;3.25;1.92;;;;;;;23.66;54.14;98750.54;1677711;85;20955;-69
2022/06/23 09:07:21;;;;;;;4.28;2.47;;;;;;;23.75;53.80;98764.85;1677618;85;20994;-68
2022/06/23 09:09:55;;;;;;;6.08;1.98;;;;;;;24.01;51.12;98760.66;1677716;85;21335;-70
2022/06/23 09:12:48;;;;;;;4.85;2.62;;;;;;;23.86;52.58;98773.30;1677594;85;20948;-75
2022/06/23 09:15:54;;;;;;;9.98;2.35;;;;;;;23.56;49.80;98769.50;1677829;85;21002;-69
2022/06/23 09:18:58;;;;;;;4.42;1.47;;;;;;;23.81;48.51;98752.23;1678019;85;21015;-69
2022/06/23 09:21:55;;;;;;;2.10;1.55;;;;;;;23.77;47.44;98777.41;1677758;85;21030;-73
2022/06/23 09:24:52;;;;;;;2.17;1.90;;;;;;;23.57;47.50;98750.54;1648829;85;20943;-73
2022/06/23 09:27:50;;;;;;;4.42;2.37;;;;;;;23.26;49.81;98769.46;1649596;84;20947;-74
2022/06/23 09:30:37;;;;;;;4.60;2.00;;;;;;;23.69;49.73;98775.05;1677831;85;21004;-70
2022/06/23 09:33:31;;;;;;;5.12;2.35;;;;;;;23.47;49.62;98783.39;1677893;85;20963;-69
2022/06/23 09:36:25;;;;;;;5.83;1.87;;;;;;;23.56;50.97;98783.98;1677678;85;21485;-67
2022/06/23 09:39:44;;;;;;;1.77;1.67;;;;;;;23.54;49.77;98788.47;1649039;85;22230;-72
2022/06/23 09:42:46;;;;;;;1.95;1.77;;;;;;;23.09;50.97;98789.80;1677665;85;21011;-70
2022/06/23 09:45:31;;;;;;;4.55;1.72;;;;;;;22.53;53.92;98760.48;1677765;85;20955;-71
2022/06/23 09:48:20;;;;;;;5.65;3.27;;;;;;;22.09;56.36;98779.03;1677698;85;20999;-67
2022/06/23 09:51:02;;;;;;;4.87;3.25;;;;;;;21.89;59.11;98782.20;1677705;85;21007;-68
2022/06/23 09:53:46;;;;;;;6.15;3.10;;;;;;;21.78;60.23;98777.81;1677579;85;21462;-68
2022/06/23 09:56:46;;;;;;;3.67;1.90;;;;;;;21.72;60.57;98787.38;1670322;86;21034;-70
2022/06/23 09:59:38;;;;;;;7.35;2.60;;;;;;;21.74;59.70;98785.11;1670667;84;20911;-68
2022/06/23 10:02:40;;;;;;;3.98;2.30;;;;;;;21.89;58.92;98786.30;1665124;86;20991;-68
2022/06/23 10:05:24;;;;;;;7.30;2.70;;;;;;;22.01;58.79;98784.88;1663395;86;21059;-67
2022/06/23 10:08:21;;;;;;;7.80;2.25;;;;;;;22.78;54.59;98782.97;1663239;86;21216;-70
2022/06/23 10:11:05;;;;;;;4.22;2.33;;;;;;;23.56;53.05;98764.03;1663588;86;21597;-69
2022/06/23 10:13:48;;;;;;;6.70;2.00;;;;;;;23.62;52.45;98785.89;1663342;86;20912;-69
2022/06/23 10:17:06;;;;;;;3.20;1.77;;;;;;;23.72;51.91;98791.58;1660928;86;20991;-67
2022/06/23 10:19:51;;;;;;;7.95;2.22;;;;;;;23.72;52.13;98783.94;1663462;86;20899;-68
2022/06/23 10:22:41;;;;;;;3.65;1.82;;;;;;;23.67;51.19;98795.19;1663267;86;21276;-69
2022/06/23 10:25:33;;;;;;;4.58;1.67;;;;;;;23.54;50.73;98798.61;1654290;86;20951;-71
2022/06/23 10:28:15;;;;;;;9.45;2.20;;;;;;;23.28;50.94;98797.28;1663250;86;20984;-69
2022/06/23 10:31:06;;;;;;;6.90;1.90;;;;;;;23.18;50.88;98812.89;1663316;86;21474;-69
2022/06/23 10:34:08;;;;;;;4.03;1.72;;;;;;;23.11;50.62;98809.98;1663012;86;21463;-68
2022/06/23 10:36:47;;;;;;;6.75;2.72;;;;;;;23.20;52.42;98802.39;1663004;86;21284;-70
2022/06/23 10:39:39;;;;;;;3.20;1.90;;;;;;;23.48;51.29;98799.48;1663351;86;20937;-73
2022/06/23 10:42:34;;;;;;;3.50;1.80;;;;;;;23.69;50.23;98801.08;1663407;86;21007;-73
2022/06/23 10:45:22;;;;;;;2.95;2.00;;;;;;;23.41;50.84;98799.32;1663438;86;20920;-73
2022/06/23 10:48:06;;;;;;;2.47;2.20;;;;;;;23.29;52.96;98802.97;1663470;86;20948;-70
2022/06/23 10:51:05;;;;;;;6.95;3.62;;;;;;;23.09;51.39;98808.97;1663363;86;21261;-70
2022/06/23 10:53:46;;;;;;;5.55;3.10;;;;;;;22.99;51.38;98810.09;1663385;86;20935;-68
2022/06/23 10:56:39;;;;;;;13.25;5.60;;;;;;;23.07;49.93;98809.89;1659856;86;21383;-65
2022/06/23 10:59:38;;;;;;;6.65;3.25;;;;;;;23.17;50.64;98814.61;1663334;86;20951;-71
2022/06/23 11:02:27;;;;;;;5.65;2.10;;;;;;;23.73;48.08;98800.61;1663186;86;21090;-70
2022/06/23 11:05:30;;;;;;;3.60;2.08;;;;;;;24.11;48.89;98820.96;1663289;86;21918;-69
2022/06/23 11:08:23;;;;;;;2.98;2.00;;;;;;;24.05;49.35;98821.02;1654126;86;20887;-71
2022/06/23 11:11:28;;;;;;;6.70;2.10;;;;;;;23.77;50.17;98823.41;1654258;86;20983;-73
2022/06/23 11:14:17;;;;;;;4.70;2.00;;;;;;;23.56;49.61;98823.70;1654217;86;21050;-74
2022/06/23 11:16:49;;;;;;;1.92;1.57;;;;;;;23.39;50.88;98827.63;1654211;86;20927;-74
2022/06/23 11:19:43;;;;;;;3.47;1.80;;;;;;;23.28;48.99;98831.50;1654067;86;21337;-73
2022/06/23 11:22:28;;;;;;;4.20;1.75;;;;;;;23.48;49.36;98828.23;1626948;87;20953;-71
2022/06/23 11:25:26;;;;;;;7.80;2.17;;;;;;;24.22;48.98;98831.54;1627568;88;21354;-72
2022/06/23 11:28:35;;;;;;;5.45;2.10;;;;;;;24.69;44.99;98822.23;1627593;88;21468;-70
2022/06/23 11:31:23;;;;;;;6.55;2.10;;;;;;;25.10;45.67;98832.70;1627551;88;20943;-71
2022/06/23 11:34:22;;;;;;;3.67;1.72;;;;;;;24.48;46.08;98825.41;1627417;88;21183;-70
2022/06/23 11:37:34;;;;;;;8.50;3.00;;;;;;;24.08;46.55;98832.08;1627242;87;20965;-70
2022/06/23 11:40:32;;;;;;;5.53;2.87;;;;;;;23.47;48.37;98837.61;1627497;88;20862;-73
2022/06/23 11:43:22;;;;;;;3.58;2.65;;;;;;;23.18;49.03;98842.22;1627876;88;20981;-75
2022/06/23 11:46:03;;;;;;;11.78;2.60;;;;;;;23.14;49.22;98853.64;1630871;88;20985;-71
2022/06/23 11:48:51;;;;;;;5.37;2.33;;;;;;;23.25;49.60;98852.75;1631010;88;21162;-72
2022/06/23 11:51:46;;;;;;;3.40;1.72;;;;;;;23.58;49.91;98850.74;1630921;87;21089;-70
2022/06/23 11:54:35;;;;;;;8.05;2.58;;;;;;;23.77;49.21;98849.44;1631278;88;20925;-71
2022/06/23 11:57:10;;;;;;;4.85;1.85;;;;;;;23.49;48.54;98855.03;1631106;88;20937;-71
2022/06/23 11:59:58;;;;;;;8.20;1.92;;;;;;;23.20;49.54;98854.95;1652032;86;21525;-73
2022/06/23 12:02:25;;;;;;;5.30;2.30;;;;;;;23.13;49.89;98850.12;1663264;86;21636;-71
2022/06/23 12:05:19;;;;;;;1.70;1.60;;;;;;;23.13;50.11;98852.86;1663318;86;20908;-70
2022/06/23 12:08:01;;;;;;;3.60;1.65;;;;;;;23.11;49.80;98846.94;1663286;86;20912;-76
2022/06/23 12:10:29;;;;;;;2.77;1.77;;;;;;;23.15;51.04;98852.48;1663103;86;20999;-71
2022/06/23 12:12:59;;;;;;;4.95;2.20;;;;;;;23.12;48.79;98855.36;1637219;86;21584;-72
2022/06/23 12:15:31;;;;;;;2.85;1.75;;;;;;;23.12;51.28;98863.56;1663547;86;21147;-71
2022/06/23 12:18:06;;;;;;;8.10;2.00;;;;;;;23.15;51.02;98860.70;1663358;86;21003;-72
2022/06/23 12:20:57;;;;;;;5.92;2.35;;;;;;;23.17;50.02;98863.88;1663262;85;20956;-70
2022/06/23 12:23:47;;;;;;;2.87;2.00;;;;;;;23.22;49.84;98868.50;1663403;86;20991;-71
2022/06/23 12:26:24;;;;;;;8.40;2.75;;;;;;;23.29;49.79;98867.30;1663697;86;20904;-70
2022/06/23 12:29:19;;;;;;;2.95;2.12;;;;;;;23.23;50.01;98867.95;1615300;86;21183;-73
2022/06/23 12:32:01;;;;;;;4.35;2.12;;;;;;;23.08;50.31;98865.45;1602453;89;21094;-69
2022/06/23 12:35:07;;;;;;;4.50;2.22;;;;;;;22.98;50.67;98861.84;1602318;89;21027;-72
2022/06/23 12:37:46;;;;;;;5.13;2.20;;;;;;;22.81;49.72;98869.83;1602564;89;21581;-70
2022/06/23 12:40:27;;;;;;;2.92;2.20;;;;;;;22.79;50.22;98874.27;1602404;89;20892;-76
2022/06/23 12:43:10;;;;;;;7.40;1.67;;;;;;;22.71;50.19;98882.08;1602489;89;21773;-71
2022/06/23 12:46:02;;;;;;;2.92;2.08;;;;;;;22.77;50.75;98882.03;1602205;89;20987;-71
2022/06/23 12:48:56;;;;;;;2.27;1.90;;;;;;;22.91;50.41;98882.98;1602515;89;20932;-73
2022/06/23 12:51:55;;;;;;;6.50;2.00;;;;;;;23.33;48.58;98882.46;1604871;87;21099;-72
2022/06/23 12:55:06;;;;;;;5.87;2.30;;;;;;;23.97;45.73;98880.39;1580597;89;20928;-74
2022/06/23 12:58:04;;;;;;;6.55;2.08;;;;;;;24.26;46.58;98883.14;1536094;93;21308;-71